Time;durP1;ratioP1;P1;durP2;ratioP2;P2;SDS_P1;SDS_P2;PMS_P1;PMS_P2;Temp;Humidity;BMP_temperature;BMP_pressure;BME280_temperature;BME280_humidity;BME280_pressure;Samples;Min_cycle;Max_cycle;Signal;HPM_P1;HPM_P2
2023/04/30 00:01:02;;;;;;;3.70;1.17;;;;;;;8.07;100.00;102032.75;6275641;28;20068;-79
2023/04/30 00:04:04;;;;;;;7.57;1.38;;;;;;;8.19;100.00;102030.75;6275569;28;20471;-79
2023/04/30 00:07:05;;;;;;;3.97;1.42;;;;;;;8.18;100.00;102034.28;6273778;28;20041;-79
2023/04/30 00:10:08;;;;;;;3.72;1.08;;;;;;;8.20;100.00;102035.94;6275102;28;20048;-79
2023/04/30 00:13:12;;;;;;;5.03;1.80;;;;;;;8.14;100.00;102039.56;6268080;28;20353;-79
2023/04/30 00:16:14;;;;;;;3.88;1.00;;;;;;;8.09;100.00;102033.56;6275140;28;20459;-78
2023/04/30 00:19:15;;;;;;;5.05;1.48;;;;;;;8.00;100.00;102036.41;6271574;28;20055;-79
2023/04/30 00:22:17;;;;;;;6.55;1.13;;;;;;;7.96;100.00;102045.22;6275064;28;20049;-79
2023/04/30 00:25:19;;;;;;;4.95;1.52;;;;;;;7.87;100.00;102042.78;6274649;28;20056;-78
2023/04/30 00:28:22;;;;;;;2.25;1.17;;;;;;;7.86;100.00;102039.31;6274703;28;20049;-78
2023/04/30 00:31:23;;;;;;;2.72;1.50;;;;;;;7.85;100.00;102048.03;6274370;28;20044;-79
2023/04/30 00:34:25;;;;;;;6.28;1.67;;;;;;;7.82;100.00;102053.34;6274993;28;20049;-78
2023/04/30 00:37:26;;;;;;;2.40;1.23;;;;;;;7.75;100.00;102056.13;6275196;28;20049;-78
2023/04/30 00:40:28;;;;;;;1.63;0.98;;;;;;;7.64;100.00;102048.50;6275089;28;20045;-78
2023/04/30 00:43:30;;;;;;;3.35;1.17;;;;;;;7.67;100.00;102058.03;6274726;28;20048;-78
2023/04/30 00:46:32;;;;;;;4.45;1.42;;;;;;;7.63;100.00;102058.09;6274917;28;20457;-79
2023/04/30 00:49:33;;;;;;;3.92;1.38;;;;;;;7.58;100.00;102059.06;6274755;28;20631;-79
2023/04/30 00:52:35;;;;;;;2.80;1.23;;;;;;;7.68;100.00;102062.38;6274858;28;20051;-79
2023/04/30 00:55:36;;;;;;;4.25;1.50;;;;;;;7.66;100.00;102062.41;6274688;28;20041;-79
2023/04/30 00:58:40;;;;;;;3.83;1.42;;;;;;;7.66;100.00;102061.53;6274263;28;20045;-79
2023/04/30 01:01:41;;;;;;;3.58;1.42;;;;;;;7.62;100.00;102066.81;6274622;28;20168;-79
2023/04/30 01:04:43;;;;;;;7.90;1.20;;;;;;;7.70;100.00;102073.69;6274714;28;20135;-78
2023/04/30 01:07:45;;;;;;;3.10;1.30;;;;;;;7.71;100.00;102072.78;6274239;28;20420;-79
2023/04/30 01:10:53;;;;;;;2.28;1.10;;;;;;;7.72;100.00;102069.25;6274685;28;20049;-79
2023/04/30 01:14:08;;;;;;;3.60;1.48;;;;;;;7.66;100.00;102067.63;6274616;28;20059;-81
2023/04/30 01:17:17;;;;;;;7.55;1.90;;;;;;;7.71;100.00;102075.41;6274296;28;20075;-79
2023/04/30 01:20:19;;;;;;;8.10;1.55;;;;;;;7.61;100.00;102072.09;6274838;28;20041;-79
2023/04/30 01:23:34;;;;;;;3.67;1.30;;;;;;;7.54;100.00;102075.72;6274797;28;20044;-79
2023/04/30 01:26:53;;;;;;;8.57;1.75;;;;;;;7.57;100.00;102079.13;6273941;28;20446;-78
2023/04/30 01:29:57;;;;;;;3.88;1.60;;;;;;;7.41;100.00;102082.97;6274386;28;20052;-79
2023/04/30 01:32:59;;;;;;;4.80;1.30;;;;;;;7.37;100.00;102082.16;6274324;28;20456;-79
2023/04/30 01:36:29;;;;;;;1.58;1.13;;;;;;;7.32;100.00;102088.34;6274973;28;20041;-79
2023/04/30 01:39:42;;;;;;;2.88;1.65;;;;;;;7.21;100.00;102088.53;6278711;28;20045;-78
2023/04/30 01:42:53;;;;;;;3.92;1.42;;;;;;;7.12;100.00;102089.56;6279101;28;20048;-79
2023/04/30 01:46:07;;;;;;;2.45;1.42;;;;;;;7.14;100.00;102086.94;6278523;28;20045;-79
2023/04/30 01:49:19;;;;;;;8.60;1.85;;;;;;;7.06;100.00;102087.06;6278737;28;20076;-78
2023/04/30 01:52:41;;;;;;;2.70;1.70;;;;;;;6.94;100.00;102084.63;6278674;28;20038;-79
2023/04/30 01:55:46;;;;;;;13.68;1.58;;;;;;;6.88;100.00;102081.28;6270427;28;20057;-78
2023/04/30 01:58:48;;;;;;;2.88;1.30;;;;;;;6.80;100.00;102086.63;6277968;28;20326;-78
2023/04/30 02:01:51;;;;;;;5.00;1.60;;;;;;;6.75;100.00;102091.06;6278328;28;20437;-78
2023/04/30 02:04:53;;;;;;;2.28;1.60;;;;;;;6.73;100.00;102092.84;6277146;28;20068;-78
2023/04/30 02:07:54;;;;;;;5.40;1.92;;;;;;;6.65;100.00;102094.72;6272443;28;20055;-78
2023/04/30 02:10:55;;;;;;;4.65;1.60;;;;;;;6.60;100.00;102094.78;6278063;28;20353;-79
2023/04/30 02:13:57;;;;;;;6.80;1.52;;;;;;;6.50;100.00;102094.06;6272737;28;20479;-79
2023/04/30 02:16:59;;;;;;;9.30;1.52;;;;;;;6.51;100.00;102101.00;6278219;28;20045;-78
2023/04/30 02:20:01;;;;;;;3.25;1.33;;;;;;;6.43;100.00;102095.03;6278122;28;20045;-79
2023/04/30 02:23:02;;;;;;;5.80;1.52;;;;;;;6.38;100.00;102091.63;6277871;28;20065;-79
2023/04/30 02:26:04;;;;;;;9.27;1.55;;;;;;;6.33;100.00;102096.03;6277872;28;20361;-78
2023/04/30 02:29:05;;;;;;;3.40;1.50;;;;;;;6.39;100.00;102098.56;6270163;28;20045;-78
2023/04/30 02:32:08;;;;;;;1.65;1.40;;;;;;;6.42;100.00;102100.28;6277728;28;20099;-78
2023/04/30 02:35:09;;;;;;;3.25;1.52;;;;;;;6.31;100.00;102109.13;6273638;28;20151;-78
2023/04/30 02:38:11;;;;;;;6.18;1.90;;;;;;;6.23;100.00;102105.75;6277549;28;20052;-79
2023/04/30 02:41:12;;;;;;;9.18;1.95;;;;;;;6.20;100.00;102107.53;6275613;28;20052;-78
2023/04/30 02:44:13;;;;;;;2.17;1.50;;;;;;;6.22;100.00;102108.38;6273739;28;20053;-78
2023/04/30 02:47:16;;;;;;;3.90;1.60;;;;;;;6.24;100.00;102111.84;6276633;28;20060;-78
2023/04/30 02:50:17;;;;;;;6.63;1.90;;;;;;;6.28;100.00;102114.38;6277357;28;20048;-78
2023/04/30 02:53:19;;;;;;;3.67;1.20;;;;;;;6.26;100.00;102108.31;6277521;28;20045;-79
2023/04/30 02:56:20;;;;;;;2.03;1.02;;;;;;;6.07;100.00;102115.50;6277115;28;20349;-78
2023/04/30 02:59:22;;;;;;;4.45;1.48;;;;;;;6.04;100.00;102118.19;6276912;28;20040;-78
2023/04/30 03:02:24;;;;;;;4.40;1.73;;;;;;;6.07;100.00;102115.50;6276983;28;20037;-78
2023/04/30 03:05:26;;;;;;;3.58;1.77;;;;;;;6.06;100.00;102115.53;6276748;28;20373;-78
2023/04/30 03:08:27;;;;;;;3.22;1.40;;;;;;;6.04;100.00;102112.97;6276713;28;20052;-78
2023/04/30 03:11:28;;;;;;;3.20;1.25;;;;;;;5.98;100.00;102107.81;6276182;28;20183;-78
2023/04/30 03:14:30;;;;;;;3.75;1.65;;;;;;;5.85;100.00;102108.78;6275825;28;20048;-78
2023/04/30 03:17:32;;;;;;;6.95;1.25;;;;;;;5.77;100.00;102108.03;6275985;28;20065;-79
2023/04/30 03:20:34;;;;;;;2.80;1.65;;;;;;;5.65;100.00;102114.25;6276047;28;20346;-78
2023/04/30 03:23:35;;;;;;;4.80;1.50;;;;;;;5.68;100.00;102109.00;6276762;28;20045;-78
2023/04/30 03:26:37;;;;;;;2.90;1.20;;;;;;;5.60;100.00;102116.06;6276260;28;20048;-78
2023/04/30 03:29:38;;;;;;;2.10;1.50;;;;;;;5.52;100.00;102117.88;6273904;28;20429;-78
2023/04/30 03:32:41;;;;;;;4.07;1.67;;;;;;;5.51;100.00;102119.63;6257327;28;20048;-79
2023/04/30 03:35:42;;;;;;;3.55;1.65;;;;;;;5.60;100.00;102127.34;6257129;28;20052;-79
2023/04/30 03:38:43;;;;;;;5.78;1.52;;;;;;;5.58;100.00;102134.28;6250343;28;20041;-79
2023/04/30 03:41:45;;;;;;;2.47;1.23;;;;;;;5.54;100.00;102126.53;6258028;28;20048;-79
2023/04/30 03:44:46;;;;;;;2.17;1.30;;;;;;;5.49;100.00;102133.53;6257294;28;20064;-79
2023/04/30 03:47:49;;;;;;;7.97;1.73;;;;;;;5.42;100.00;102131.88;6257976;28;20163;-78
2023/04/30 03:50:50;;;;;;;4.03;1.95;;;;;;;5.38;100.00;102133.66;6256569;28;20045;-78
2023/04/30 03:53:52;;;;;;;2.10;1.33;;;;;;;5.45;100.00;102129.22;6258005;28;20049;-78
2023/04/30 03:56:53;;;;;;;2.95;1.88;;;;;;;5.43;100.00;102131.00;6257573;28;20057;-78
2023/04/30 03:59:55;;;;;;;2.28;1.27;;;;;;;5.42;100.00;102134.50;6257067;28;20060;-79
2023/04/30 04:02:59;;;;;;;2.72;1.35;;;;;;;5.42;100.00;102148.38;6257753;28;20079;-78
2023/04/30 04:06:00;;;;;;;6.15;1.85;;;;;;;5.42;100.00;102134.50;6251140;28;20183;-79
2023/04/30 04:09:03;;;;;;;4.75;1.52;;;;;;;5.44;100.00;102145.75;6252918;28;20052;-78
2023/04/30 04:12:05;;;;;;;18.45;1.80;;;;;;;5.35;100.00;102141.47;6259642;28;20052;-78
2023/04/30 04:15:07;;;;;;;2.70;1.60;;;;;;;5.31;100.00;102150.22;6257766;28;20048;-78
2023/04/30 04:18:10;;;;;;;2.00;1.13;;;;;;;5.35;100.00;102144.94;6257669;28;20041;-79
2023/04/30 04:21:11;;;;;;;5.55;1.85;;;;;;;5.33;100.00;102151.06;6255336;28;20040;-79
2023/04/30 04:24:13;;;;;;;2.90;1.48;;;;;;;5.29;100.00;102151.97;6259279;28;20051;-78
2023/04/30 04:27:15;;;;;;;2.75;1.58;;;;;;;5.36;100.00;102158.88;6258675;28;20045;-78
2023/04/30 04:30:17;;;;;;;8.30;1.95;;;;;;;5.41;100.00;102154.47;6270596;28;20053;-79
2023/04/30 04:33:20;;;;;;;8.38;2.58;;;;;;;5.40;100.00;102162.28;6274875;28;20052;-78
2023/04/30 04:36:22;;;;;;;5.35;2.10;;;;;;;5.25;100.00;102155.50;6275231;28;20128;-79
2023/04/30 04:39:23;;;;;;;11.00;2.08;;;;;;;5.28;100.00;102160.69;6275215;28;20052;-79
2023/04/30 04:42:24;;;;;;;4.40;2.38;;;;;;;5.37;100.00;102167.56;6274974;28;20041;-78
2023/04/30 04:45:26;;;;;;;4.40;1.80;;;;;;;5.32;100.00;102165.84;6275279;28;20511;-78
2023/04/30 04:48:29;;;;;;;4.03;1.90;;;;;;;5.33;100.00;102170.19;6274697;28;20049;-78
2023/04/30 04:51:31;;;;;;;2.22;1.75;;;;;;;5.32;100.00;102176.28;6275102;28;20422;-78
2023/04/30 04:54:33;;;;;;;3.90;1.58;;;;;;;5.44;100.00;102171.81;6274822;28;20451;-79
2023/04/30 04:57:35;;;;;;;6.10;2.35;;;;;;;5.48;100.00;102179.59;6274440;28;20052;-79
2023/04/30 05:00:36;;;;;;;3.88;2.10;;;;;;;5.53;100.00;102170.00;6274967;28;20048;-78
2023/04/30 05:03:39;;;;;;;2.80;1.50;;;;;;;5.56;100.00;102179.53;6275119;28;20055;-79
2023/04/30 05:06:41;;;;;;;6.15;2.33;;;;;;;5.60;100.00;102187.31;6274694;28;20044;-78
2023/04/30 05:09:42;;;;;;;6.18;2.58;;;;;;;5.56;100.00;102185.63;6274563;28;20139;-78
2023/04/30 05:12:44;;;;;;;2.33;1.70;;;;;;;5.65;100.00;102187.28;6278664;28;20052;-79
2023/04/30 05:15:45;;;;;;;5.25;2.25;;;;;;;5.72;100.00;102195.88;6279849;28;20049;-78
2023/04/30 05:18:48;;;;;;;8.30;2.45;;;;;;;5.72;100.00;102193.28;6279535;28;20049;-79
2023/04/30 05:21:50;;;;;;;3.95;2.53;;;;;;;5.74;100.00;102199.38;6279585;28;20049;-78
2023/04/30 05:24:51;;;;;;;3.80;1.88;;;;;;;5.81;100.00;102195.78;6279471;28;20095;-78
2023/04/30 05:27:53;;;;;;;2.83;1.92;;;;;;;5.89;100.00;102200.94;6279112;28;20055;-78
2023/04/30 05:30:54;;;;;;;7.15;2.60;;;;;;;5.98;100.00;102203.47;6279357;28;20049;-78
2023/04/30 05:33:57;;;;;;;3.22;1.60;;;;;;;6.06;100.00;102199.06;6279192;28;20045;-79
2023/04/30 05:37:00;;;;;;;3.95;1.77;;;;;;;6.06;100.00;102199.06;6279425;28;20052;-78
2023/04/30 05:40:01;;;;;;;2.83;2.05;;;;;;;6.12;100.00;102212.03;6279347;28;20060;-79
2023/04/30 05:43:03;;;;;;;7.60;1.85;;;;;;;6.23;100.00;102212.78;6279115;28;20341;-79
2023/04/30 05:46:04;;;;;;;3.35;1.88;;;;;;;6.28;100.00;102210.97;6278651;28;20045;-79
2023/04/30 05:49:07;;;;;;;5.07;1.90;;;;;;;6.31;100.00;102210.94;6278994;28;20052;-79
2023/04/30 05:52:08;;;;;;;8.00;2.42;;;;;;;6.33;100.00;102208.31;6278832;28;20046;-79
2023/04/30 05:55:10;;;;;;;9.25;2.25;;;;;;;6.39;100.00;102213.44;6278444;28;20052;-79
2023/04/30 05:58:11;;;;;;;6.07;2.08;;;;;;;6.45;100.00;102207.28;6278367;28;20130;-78
2023/04/30 06:01:13;;;;;;;6.57;2.00;;;;;;;6.51;100.00;102215.06;6278510;28;20044;-79
2023/04/30 06:04:16;;;;;;;3.47;1.70;;;;;;;6.47;100.00;102206.38;6278940;28;20048;-79
2023/04/30 06:07:17;;;;;;;2.33;1.65;;;;;;;6.55;100.00;102212.38;6271658;28;20136;-78
2023/04/30 06:10:19;;;;;;;11.82;2.35;;;;;;;6.62;100.00;102207.91;6278073;28;20357;-78
2023/04/30 06:13:21;;;;;;;3.85;1.70;;;;;;;6.72;100.00;102213.88;6278060;28;20041;-78
2023/04/30 06:16:23;;;;;;;6.95;2.90;;;;;;;6.86;100.00;102218.06;6278210;28;20075;-78
2023/04/30 06:19:26;;;;;;;3.65;1.80;;;;;;;6.90;100.00;102215.38;6277991;28;20036;-79
2023/04/30 06:22:27;;;;;;;9.50;1.83;;;;;;;6.93;100.00;102223.19;6276870;28;20052;-79
2023/04/30 06:25:29;;;;;;;3.35;1.90;;;;;;;7.00;100.00;102222.22;6277984;28;20056;-79
2023/04/30 06:28:30;;;;;;;9.93;2.38;;;;;;;7.01;100.00;102230.03;6277747;28;20045;-79
2023/04/30 06:31:32;;;;;;;3.50;1.65;;;;;;;7.07;100.00;102224.69;6277804;28;20048;-79
2023/04/30 06:34:35;;;;;;;7.40;2.80;;;;;;;7.03;100.00;102216.91;6277301;28;20041;-79
2023/04/30 06:37:37;;;;;;;5.60;1.70;;;;;;;7.14;100.00;102233.31;6277735;28;20053;-78
2023/04/30 06:40:38;;;;;;;2.75;1.33;;;;;;;7.14;100.00;102229.84;6277742;28;20049;-78
2023/04/30 06:43:40;;;;;;;4.20;1.70;;;;;;;7.15;100.00;102231.56;6277598;28;20345;-79
2023/04/30 06:46:41;;;;;;;4.57;1.63;;;;;;;7.18;100.00;102228.94;6277468;28;20357;-79
2023/04/30 06:49:44;;;;;;;3.60;1.50;;;;;;;7.17;100.00;102229.78;6269310;28;20052;-79
2023/04/30 06:52:45;;;;;;;2.15;1.33;;;;;;;7.22;100.00;102233.19;6277212;28;20052;-79
2023/04/30 06:55:46;;;;;;;3.03;1.48;;;;;;;7.27;100.00;102229.63;6277625;28;20049;-79
2023/04/30 06:58:49;;;;;;;6.72;1.98;;;;;;;7.37;100.00;102225.97;6276856;28;20357;-79
2023/04/30 07:01:50;;;;;;;7.72;1.58;;;;;;;7.42;100.00;102236.38;6277113;28;20048;-79
2023/04/30 07:04:53;;;;;;;6.03;1.70;;;;;;;7.45;100.00;102235.44;6277308;28;20048;-79
2023/04/30 07:07:55;;;;;;;2.90;1.10;;;;;;;7.49;99.04;102242.34;6276977;28;20139;-79
2023/04/30 07:10:56;;;;;;;15.13;1.50;;;;;;;7.53;97.36;102229.19;6277190;28;20052;-79
2023/04/30 07:13:58;;;;;;;9.38;1.30;;;;;;;7.65;97.10;102237.75;6276470;28;20098;-79
2023/04/30 07:16:59;;;;;;;5.97;1.27;;;;;;;7.71;98.17;102241.09;6276949;28;20056;-79
2023/04/30 07:20:03;;;;;;;7.05;1.60;;;;;;;7.82;94.53;102240.94;6276471;28;20052;-79
2023/04/30 07:23:04;;;;;;;4.75;1.98;;;;;;;7.78;90.52;102237.50;6276723;28;20045;-78
2023/04/30 07:26:06;;;;;;;1.95;1.10;;;;;;;7.81;94.65;102228.72;6276744;28;20056;-79
2023/04/30 07:29:07;;;;;;;5.90;1.65;;;;;;;7.82;92.69;102238.31;6276356;28;20045;-78
2023/04/30 07:32:08;;;;;;;4.65;1.75;;;;;;;7.89;94.51;102239.91;6276359;28;20404;-79
2023/04/30 07:35:11;;;;;;;10.52;1.65;;;;;;;8.03;93.03;102231.81;6275876;28;20045;-79
2023/04/30 07:38:12;;;;;;;6.45;1.48;;;;;;;8.02;91.94;102240.56;6276403;28;20052;-78
2023/04/30 07:41:14;;;;;;;7.15;1.70;;;;;;;8.03;89.42;102234.41;6276407;28;20044;-79
2023/04/30 07:44:15;;;;;;;7.35;2.08;;;;;;;7.98;88.83;102234.50;6276289;28;20037;-79
2023/04/30 07:47:17;;;;;;;4.78;1.25;;;;;;;8.00;91.77;102232.75;6275886;28;20455;-79
2023/04/30 07:50:20;;;;;;;2.15;1.20;;;;;;;8.05;93.67;102237.88;6276007;28;20063;-79
2023/04/30 07:53:21;;;;;;;4.25;1.27;;;;;;;8.02;90.58;102237.94;6275242;28;20345;-81
2023/04/30 07:56:22;;;;;;;6.22;1.60;;;;;;;8.05;90.33;102237.88;6275021;28;20044;-79
2023/04/30 07:59:24;;;;;;;2.22;1.30;;;;;;;8.13;91.46;102233.38;6275766;28;20110;-79
2023/04/30 08:02:25;;;;;;;4.30;1.23;;;;;;;8.23;90.31;102236.66;6275715;28;20048;-78
2023/04/30 08:05:28;;;;;;;4.72;2.30;;;;;;;8.13;86.45;102230.75;6275674;28;20107;-79
2023/04/30 08:08:29;;;;;;;7.60;1.60;;;;;;;8.12;88.23;102239.47;6269097;28;20045;-79
2023/04/30 08:11:31;;;;;;;2.42;1.13;;;;;;;8.11;87.79;102230.75;6269225;28;20430;-79
2023/04/30 08:14:32;;;;;;;10.32;3.35;;;;;;;8.19;89.50;102235.00;6275201;28;20052;-78
2023/04/30 08:17:34;;;;;;;2.25;1.25;;;;;;;8.28;87.48;102235.69;6275351;28;20052;-79
2023/04/30 08:20:37;;;;;;;1.60;1.20;;;;;;;8.40;87.13;102239.81;6275174;28;20048;-79
2023/04/30 08:23:39;;;;;;;4.53;1.48;;;;;;;8.38;85.06;102250.34;6275324;28;20045;-79
2023/04/30 08:26:40;;;;;;;11.10;1.55;;;;;;;8.31;83.15;102232.13;6275294;28;20139;-79
2023/04/30 08:29:42;;;;;;;5.07;1.42;;;;;;;8.32;81.89;102239.97;6275228;28;20045;-79
2023/04/30 08:32:43;;;;;;;3.83;1.15;;;;;;;8.38;82.14;102241.63;6275143;28;20059;-79
2023/04/30 08:35:46;;;;;;;9.95;1.30;;;;;;;8.53;85.25;102243.06;6275275;28;20052;-79
2023/04/30 08:38:47;;;;;;;4.53;1.35;;;;;;;8.74;82.65;102247.84;6275049;28;20053;-79
2023/04/30 08:41:54;;;;;;;2.78;1.52;;;;;;;8.75;81.09;102244.34;6275134;28;20471;-79
2023/04/30 08:44:56;;;;;;;10.57;1.25;;;;;;;8.86;83.01;102244.97;6275075;28;20127;-79
2023/04/30 08:47:59;;;;;;;3.75;1.10;;;;;;;8.93;82.33;102239.59;6274310;28;20445;-79
2023/04/30 08:51:03;;;;;;;6.13;1.73;;;;;;;8.82;79.45;102229.34;6275137;28;20045;-79
2023/04/30 08:54:04;;;;;;;6.07;1.13;;;;;;;8.85;80.66;102227.50;6274358;28;20428;-79
2023/04/30 08:57:06;;;;;;;6.18;1.60;;;;;;;9.13;80.74;102233.00;6275170;28;20135;-78
2023/04/30 09:00:08;;;;;;;2.20;1.20;;;;;;;9.14;80.34;102226.84;6274611;28;20352;-79
2023/04/30 09:03:10;;;;;;;2.90;0.75;;;;;;;9.12;76.55;102215.50;6274617;28;20413;-79
2023/04/30 09:06:16;;;;;;;3.65;1.30;;;;;;;9.16;75.29;102221.56;6274424;28;20056;-78
2023/04/30 09:09:17;;;;;;;1.40;0.80;;;;;;;9.15;77.03;102214.59;6274751;28;20053;-78
2023/04/30 09:12:19;;;;;;;4.38;1.42;;;;;;;9.17;76.58;102219.78;6274817;28;20094;-79
2023/04/30 09:15:21;;;;;;;6.28;1.00;;;;;;;9.32;76.70;102228.19;6274658;28;20055;-79
2023/04/30 09:18:22;;;;;;;4.50;1.33;;;;;;;9.33;74.21;102218.53;6274730;28;20040;-79
2023/04/30 09:21:35;;;;;;;4.97;1.33;;;;;;;9.16;70.64;102205.81;6274321;28;20052;-79
2023/04/30 09:24:46;;;;;;;4.18;1.33;;;;;;;9.30;72.26;102215.97;6274418;28;20430;-78
2023/04/30 09:27:48;;;;;;;3.28;1.00;;;;;;;9.35;73.81;102214.09;6274280;28;20049;-79
2023/04/30 09:30:50;;;;;;;7.05;1.08;;;;;;;9.53;76.68;102211.00;6274183;28;20445;-79
2023/04/30 09:33:52;;;;;;;9.27;1.10;;;;;;;9.61;75.62;102213.47;6273744;28;20041;-78
2023/04/30 09:36:55;;;;;;;1.85;1.20;;;;;;;9.64;69.90;102202.88;6273918;28;20048;-78
2023/04/30 09:39:57;;;;;;;1.65;1.02;;;;;;;9.69;71.67;102202.78;6273544;28;20045;-78
2023/04/30 09:42:58;;;;;;;3.42;0.88;;;;;;;9.76;72.94;102196.44;6271038;28;20041;-79
2023/04/30 09:46:00;;;;;;;4.82;1.50;;;;;;;9.93;71.58;102196.84;6273744;28;20139;-79
2023/04/30 09:49:04;;;;;;;5.03;1.55;;;;;;;9.93;69.53;102196.00;6274022;28;20045;-79
2023/04/30 09:52:08;;;;;;;6.95;1.17;;;;;;;9.95;66.33;102194.16;6273685;28;20045;-79
2023/04/30 09:55:10;;;;;;;8.93;1.77;;;;;;;9.95;65.58;102192.44;6274146;28;20357;-78
2023/04/30 09:58:12;;;;;;;4.05;1.27;;;;;;;10.05;68.66;102191.25;6276652;28;20337;-79
2023/04/30 10:01:15;;;;;;;3.22;1.00;;;;;;;10.25;67.49;102190.72;6278799;28;20045;-79
2023/04/30 10:04:17;;;;;;;6.50;2.53;;;;;;;10.32;66.54;102189.66;6278580;28;20041;-79
2023/04/30 10:07:21;;;;;;;2.25;0.88;;;;;;;10.37;65.74;102185.13;6277142;28;20045;-79
2023/04/30 10:10:26;;;;;;;3.70;1.50;;;;;;;10.28;63.95;102176.66;6266681;28;20045;-80
2023/04/30 10:13:31;;;;;;;6.55;1.38;;;;;;;10.32;67.74;102180.91;6278320;28;20041;-79
2023/04/30 10:16:39;;;;;;;1.42;0.93;;;;;;;10.44;66.09;102187.56;6276445;28;20128;-79
2023/04/30 10:19:46;;;;;;;5.55;2.95;;;;;;;10.45;63.50;102184.03;6269936;28;20041;-79
2023/04/30 10:22:50;;;;;;;10.63;4.05;;;;;;;10.52;63.37;102186.44;6277069;28;20449;-79
2023/04/30 10:25:52;;;;;;;4.47;1.83;;;;;;;10.57;65.70;102186.28;6277580;28;20049;-79
2023/04/30 10:28:57;;;;;;;8.13;1.00;;;;;;;10.86;65.30;102186.25;6277763;28;20188;-79
2023/04/30 10:32:00;;;;;;;3.03;1.30;;;;;;;10.82;65.63;102173.25;6278082;28;20138;-79
2023/04/30 10:35:13;;;;;;;5.78;1.50;;;;;;;11.04;67.85;102168.19;6277979;28;20069;-78
2023/04/30 10:38:21;;;;;;;4.25;1.50;;;;;;;11.11;63.68;102174.94;6277754;28;20063;-79
2023/04/30 10:41:25;;;;;;;3.95;2.15;;;;;;;11.13;66.52;102173.13;6277864;28;20100;-79
2023/04/30 10:44:27;;;;;;;3.35;1.20;;;;;;;11.25;63.95;102169.22;6277591;28;20048;-79
2023/04/30 10:47:29;;;;;;;2.38;1.00;;;;;;;11.18;61.85;102164.19;6277424;28;20116;-79
2023/04/30 10:50:31;;;;;;;4.63;1.10;;;;;;;11.18;62.82;102161.53;6277484;28;20175;-79
2023/04/30 10:53:39;;;;;;;4.30;1.65;;;;;;;11.33;63.82;102156.69;6277499;28;20048;-80
2023/04/30 10:56:40;;;;;;;2.20;1.33;;;;;;;11.48;64.54;102156.16;6277174;28;20477;-79
2023/04/30 10:59:51;;;;;;;1.83;1.20;;;;;;;11.51;63.51;102145.50;6277241;28;20048;-79
2023/04/30 11:02:56;;;;;;;4.32;1.55;;;;;;;11.42;60.27;102159.00;6277263;28;20060;-79
2023/04/30 11:06:02;;;;;;;2.47;1.25;;;;;;;11.59;65.09;102153.16;6277365;28;20053;-79
2023/04/30 11:09:05;;;;;;;6.05;1.55;;;;;;;11.73;63.75;102147.41;6276372;28;20047;-78
2023/04/30 11:12:11;;;;;;;3.90;1.55;;;;;;;11.99;62.92;102157.00;6276863;28;20331;-79
2023/04/30 11:15:16;;;;;;;6.20;1.33;;;;;;;12.05;60.90;102146.25;6276588;28;20049;-79
2023/04/30 11:18:18;;;;;;;3.08;1.45;;;;;;;11.98;60.13;102142.13;6276913;28;20487;-79
2023/04/30 11:21:21;;;;;;;1.95;0.93;;;;;;;12.35;62.35;102142.47;6276514;28;20052;-79
2023/04/30 11:24:54;;;;;;;2.60;1.52;;;;;;;12.40;60.88;102140.53;6276498;28;20051;-80
2023/04/30 11:27:56;;;;;;;5.82;1.60;;;;;;;12.41;60.77;102133.47;6276623;28;20415;-80
2023/04/30 11:30:59;;;;;;;6.28;1.52;;;;;;;12.39;60.37;102132.66;6276455;28;20055;-79
2023/04/30 11:34:01;;;;;;;3.75;1.60;;;;;;;12.44;59.94;102141.25;6276417;28;20049;-79
2023/04/30 11:37:03;;;;;;;4.00;1.25;;;;;;;12.65;62.13;102139.56;6276396;28;20103;-80
2023/04/30 11:40:09;;;;;;;5.93;1.10;;;;;;;12.87;58.74;102136.91;6276027;28;20388;-80
2023/04/30 11:43:21;;;;;;;4.45;1.10;;;;;;;13.10;60.08;102130.69;6276156;28;20048;-79
2023/04/30 11:46:22;;;;;;;2.55;1.10;;;;;;;13.26;56.85;102123.00;6276224;28;20045;-79
2023/04/30 11:49:24;;;;;;;2.55;0.93;;;;;;;13.48;57.51;102120.31;6275872;28;20429;-79
2023/04/30 11:52:25;;;;;;;5.35;2.05;;;;;;;13.75;54.45;102113.81;6275925;28;20040;-80
2023/04/30 11:55:29;;;;;;;2.13;1.08;;;;;;;13.52;54.25;102117.47;6275802;28;20048;-79
2023/04/30 11:58:34;;;;;;;6.20;1.50;;;;;;;13.68;58.45;102102.66;6275723;28;20045;-80
2023/04/30 12:01:36;;;;;;;2.53;1.20;;;;;;;14.02;56.95;102116.13;6276126;28;20056;-79
2023/04/30 12:04:38;;;;;;;4.10;1.30;;;;;;;14.18;54.83;102110.06;6275998;28;20049;-80
2023/04/30 12:07:39;;;;;;;4.95;1.20;;;;;;;14.41;57.60;102103.69;6275516;28;20045;-80
2023/04/30 12:10:42;;;;;;;2.35;1.00;;;;;;;14.77;55.60;102102.03;6275718;28;20056;-80
2023/04/30 12:13:50;;;;;;;1.02;0.65;;;;;;;14.93;53.08;102105.63;6275496;28;20045;-80
2023/04/30 12:16:52;;;;;;;5.22;1.17;;;;;;;14.90;52.85;102097.84;6275361;28;20044;-80
2023/04/30 12:19:54;;;;;;;3.33;1.05;;;;;;;14.91;52.50;102104.84;6272532;28;20049;-80
2023/04/30 12:22:56;;;;;;;1.77;1.02;;;;;;;14.80;49.92;102102.72;6271815;28;20048;-80
2023/04/30 12:26:00;;;;;;;1.23;0.93;;;;;;;14.63;52.12;102098.28;6274822;28;20049;-80
2023/04/30 12:29:03;;;;;;;3.17;0.90;;;;;;;14.65;51.20;102091.09;6274857;28;20048;-80
2023/04/30 12:32:05;;;;;;;3.25;1.13;;;;;;;14.66;53.46;102098.09;6275383;28;20045;-80
2023/04/30 12:35:07;;;;;;;6.20;1.35;;;;;;;14.68;54.09;102090.97;6274809;28;20048;-80
2023/04/30 12:38:09;;;;;;;9.13;1.50;;;;;;;14.56;52.04;102080.13;6274618;28;20126;-80
2023/04/30 12:41:14;;;;;;;2.25;1.15;;;;;;;14.62;53.02;102083.31;6274430;28;20124;-79
2023/04/30 12:44:16;;;;;;;2.70;0.90;;;;;;;15.05;55.63;102080.31;6274871;28;20045;-80
2023/04/30 12:47:18;;;;;;;2.85;1.38;;;;;;;15.48;55.21;102074.50;6274465;28;20348;-81
2023/04/30 12:50:22;;;;;;;4.57;1.08;;;;;;;15.67;51.85;102078.91;6274460;28;20071;-79
2023/04/30 12:53:23;;;;;;;3.88;1.00;;;;;;;15.94;53.78;102068.56;6274002;28;20049;-80
2023/04/30 12:56:26;;;;;;;2.90;1.02;;;;;;;16.09;52.26;102072.19;6274638;28;20048;-80
2023/04/30 12:59:28;;;;;;;2.22;0.98;;;;;;;16.38;51.91;102081.16;6274211;28;20049;-80
2023/04/30 13:02:30;;;;;;;4.13;1.30;;;;;;;16.20;52.61;102072.44;6274613;28;20049;-80
2023/04/30 13:05:32;;;;;;;2.38;1.15;;;;;;;16.17;50.49;102060.22;6274555;28;20056;-80
2023/04/30 13:08:33;;;;;;;5.35;1.67;;;;;;;16.17;53.03;102062.88;6273895;28;20052;-79
2023/04/30 13:11:36;;;;;;;2.67;0.98;;;;;;;16.52;51.01;102059.16;6273233;28;20072;-80
2023/04/30 13:14:38;;;;;;;5.88;1.23;;;;;;;16.66;50.01;102053.91;6274626;28;20037;-80
2023/04/30 13:17:39;;;;;;;5.35;1.40;;;;;;;16.73;52.23;102042.03;6273874;28;20041;-80
2023/04/30 13:20:42;;;;;;;6.22;1.33;;;;;;;16.56;49.04;102039.44;6266468;28;20506;-80
2023/04/30 13:23:43;;;;;;;2.65;0.80;;;;;;;16.06;50.11;102032.56;6274588;28;20429;-80
2023/04/30 13:26:46;;;;;;;6.40;1.15;;;;;;;15.79;50.45;102024.34;6274576;28;20052;-80
2023/04/30 13:29:48;;;;;;;4.13;1.45;;;;;;;15.56;52.28;102022.91;6274276;28;20053;-80
2023/04/30 13:32:50;;;;;;;3.72;1.02;;;;;;;15.85;54.62;102019.56;6276619;28;20361;-80
2023/04/30 13:35:51;;;;;;;3.83;1.73;;;;;;;16.04;53.83;102015.91;6279433;28;20049;-80
2023/04/30 13:38:53;;;;;;;4.55;1.13;;;;;;;16.14;51.51;102012.63;6278954;28;20056;-80
2023/04/30 13:41:56;;;;;;;5.75;1.00;;;;;;;16.12;49.85;102014.50;6279144;28;20045;-80
2023/04/30 13:44:57;;;;;;;4.13;1.58;;;;;;;15.93;50.17;102013.84;6279196;28;20041;-80
2023/04/30 13:47:58;;;;;;;1.60;0.80;;;;;;;16.29;54.27;102002.09;6278837;28;20041;-81
2023/04/30 13:51:00;;;;;;;2.80;1.10;;;;;;;17.01;51.56;101988.13;6279042;28;20060;-80
2023/04/30 13:54:01;;;;;;;5.30;1.30;;;;;;;17.42;51.12;101995.34;6278686;28;20049;-81
2023/04/30 13:57:04;;;;;;;6.93;1.40;;;;;;;17.23;47.87;101982.34;6278401;28;20436;-80
2023/04/30 14:00:07;;;;;;;2.70;1.15;;;;;;;17.07;48.63;101977.13;6278339;28;20041;-80
2023/04/30 14:03:10;;;;;;;4.80;1.38;;;;;;;17.05;50.65;101976.38;6278551;28;20048;-79
2023/04/30 14:06:11;;;;;;;4.20;1.20;;;;;;;17.34;50.20;101973.72;6277880;28;20467;-80
2023/04/30 14:09:12;;;;;;;2.38;1.20;;;;;;;17.50;48.47;101980.63;6277510;28;20420;-80
2023/04/30 14:12:15;;;;;;;2.00;1.30;;;;;;;17.67;51.07;101968.94;6277904;28;20049;-80